Terminal Aerodrome Forecast
Issued by NWS

Home | Current Version | Previous Version | Text Only | Print | Product List | Glossary Off
Versions: 1 2 3 4 5 6 7 8 9 10 11 12 13 14 15 16 17 18 19

057
FTUS43 KICT 141906 AAA
TAFSLN
TAF AMD
KSLN 141906Z 1419/1518 18009KT P6SM OVC008
      TEMPO 1419/1423 OVC012
     FM150000 17009KT P6SM OVC008
     FM150500 25006KT P6SM BKN008
     FM150800 32009KT P6SM SCT015
     FM151100 35012KT P6SM FEW200=

USA.gov is the U.S. government's official web portal to all federal, state and local government web resources and services.